createdAt,value
2018-12-07T00:00:20.961Z,11.59
2018-12-07T00:02:49.418Z,11.61
2018-12-07T00:05:18.014Z,11.65
2018-12-07T00:07:46.604Z,11.68
2018-12-07T00:10:14.954Z,11.66
2018-12-07T00:12:44.149Z,11.57
2018-12-07T00:15:12.792Z,11.68
2018-12-07T00:17:41.391Z,11.63
2018-12-07T00:20:09.889Z,11.61
2018-12-07T00:22:38.302Z,11.65
2018-12-07T00:25:06.814Z,11.73
2018-12-07T00:27:35.165Z,11.68
2018-12-07T00:30:03.813Z,11.75
2018-12-07T00:32:32.744Z,11.67
2018-12-07T00:35:01.960Z,11.73
2018-12-07T00:37:30.508Z,11.83
2018-12-07T00:39:59.433Z,11.71
2018-12-07T00:42:27.773Z,11.60
2018-12-07T00:44:56.092Z,11.68
2018-12-07T00:47:24.456Z,11.75
2018-12-07T00:49:52.853Z,11.70
2018-12-07T00:52:21.267Z,11.65
2018-12-07T00:54:49.885Z,11.60
2018-12-07T00:57:18.294Z,11.54
2018-12-07T00:59:46.633Z,11.64
2018-12-07T01:02:14.960Z,11.67
2018-12-07T01:04:43.425Z,11.84
2018-12-07T01:07:11.992Z,11.68
2018-12-07T01:09:40.371Z,11.53
2018-12-07T01:12:08.921Z,11.47
2018-12-07T01:14:37.966Z,11.71
2018-12-07T01:17:07.069Z,11.64
2018-12-07T01:19:35.442Z,11.53
2018-12-07T01:22:03.746Z,11.51
2018-12-07T01:24:32.090Z,11.40
2018-12-07T01:27:01.054Z,11.58
2018-12-07T01:29:29.411Z,11.33
2018-12-07T01:31:57.730Z,11.39
2018-12-07T01:34:26.894Z,11.37
2018-12-07T01:36:55.261Z,11.38
2018-12-07T01:39:24.342Z,11.50
2018-12-07T01:41:53.043Z,11.46
2018-12-07T01:49:33.101Z,11.44
2018-12-07T01:52:01.444Z,11.61
2018-12-07T01:54:29.826Z,11.57
2018-12-07T01:56:58.182Z,11.56
2018-12-07T01:59:26.716Z,11.63
2018-12-07T02:01:55.341Z,11.47
2018-12-07T02:04:23.647Z,11.60
2018-12-07T02:06:51.986Z,11.38
2018-12-07T02:09:20.303Z,11.44
2018-12-07T02:11:48.642Z,11.47
2018-12-07T02:14:17.527Z,11.39
2018-12-07T02:16:46.043Z,11.53
2018-12-07T02:19:14.465Z,11.47
2018-12-07T02:21:43.208Z,11.53
2018-12-07T02:24:11.757Z,11.37
2018-12-07T02:26:40.724Z,11.41
2018-12-07T02:29:09.020Z,11.49
2018-12-07T02:31:37.321Z,11.36
2018-12-07T02:34:05.771Z,11.17
2018-12-07T02:36:34.347Z,11.21
2018-12-07T02:39:06.823Z,11.14
2018-12-07T02:41:35.207Z,11.19
2018-12-07T02:44:03.526Z,11.08
2018-12-07T02:46:32.611Z,11.09
2018-12-07T02:49:01.012Z,11.34
2018-12-07T02:51:29.411Z,11.24
2018-12-07T02:53:58.396Z,11.20
2018-12-07T02:56:26.697Z,11.29
2018-12-07T02:58:55.030Z,11.27
2018-12-07T03:01:23.470Z,11.20
2018-12-07T03:03:52.170Z,11.37
2018-12-07T03:06:20.558Z,11.35
2018-12-07T03:08:48.862Z,11.32
2018-12-07T03:11:17.175Z,11.27
2018-12-07T03:13:46.418Z,11.31
2018-12-07T03:16:15.066Z,11.07
2018-12-07T03:18:43.521Z,11.37
2018-12-07T03:21:12.066Z,11.53
2018-12-07T03:23:41.310Z,11.60
2018-12-07T03:26:10.384Z,11.38
2018-12-07T03:28:38.964Z,11.63
2018-12-07T03:31:07.721Z,11.65
2018-12-07T03:33:36.264Z,11.52
2018-12-07T03:36:05.458Z,11.53
2018-12-07T03:38:33.758Z,11.36
2018-12-07T03:41:02.070Z,11.62
2018-12-07T03:43:30.596Z,11.71
2018-12-07T03:45:59.251Z,11.47
2018-12-07T03:48:27.639Z,11.57
2018-12-07T03:50:56.180Z,11.72
2018-12-07T03:53:24.601Z,11.48
2018-12-07T03:55:53.136Z,11.58
2018-12-07T03:58:21.439Z,11.38
2018-12-07T04:00:50.086Z,11.51
2018-12-07T04:03:19.064Z,11.60
2018-12-07T04:05:47.987Z,11.70
2018-12-07T04:08:16.731Z,11.64
2018-12-07T04:10:45.224Z,11.56
2018-12-07T04:13:13.740Z,11.58
2018-12-07T04:15:42.417Z,11.41
2018-12-07T04:18:10.913Z,11.55
2018-12-07T04:20:39.375Z,11.48
2018-12-07T04:23:07.843Z,11.59
2018-12-07T04:25:36.275Z,11.67
2018-12-07T04:28:04.580Z,11.80
2018-12-07T04:30:32.874Z,11.60
2018-12-07T04:33:01.355Z,11.38
2018-12-07T04:35:29.881Z,11.35
2018-12-07T04:37:58.246Z,11.73
2018-12-07T04:40:26.651Z,11.93
2018-12-07T04:42:55.437Z,11.60
2018-12-07T04:45:23.902Z,11.77
2018-12-07T04:47:52.230Z,11.78
2018-12-07T04:50:20.537Z,11.92
2018-12-07T04:52:48.899Z,11.73
2018-12-07T04:55:17.985Z,11.76
2018-12-07T04:57:46.261Z,11.70
2018-12-07T05:00:15.085Z,11.82
2018-12-07T05:02:43.471Z,11.67
2018-12-07T05:05:11.882Z,11.80
2018-12-07T05:07:40.205Z,11.89
2018-12-07T05:10:08.626Z,11.94
2018-12-07T05:12:36.951Z,11.87
2018-12-07T05:15:06.716Z,11.77
2018-12-07T05:17:35.104Z,12.05
2018-12-07T05:20:05.283Z,11.78
2018-12-07T05:22:33.731Z,11.67
2018-12-07T05:25:02.309Z,11.74
2018-12-07T05:27:30.607Z,11.80
2018-12-07T05:29:59.351Z,11.70
2018-12-07T05:32:27.638Z,11.53
2018-12-07T05:34:56.006Z,11.74
2018-12-07T05:37:24.665Z,11.57
2018-12-07T05:39:53.142Z,11.70
2018-12-07T05:42:21.575Z,11.70
2018-12-07T05:44:50.035Z,11.84
2018-12-07T05:47:18.821Z,11.78
2018-12-07T05:49:47.308Z,11.79
2018-12-07T05:52:15.686Z,11.67
2018-12-07T05:54:44.492Z,11.66
2018-12-07T05:57:12.914Z,11.86
2018-12-07T05:59:41.261Z,11.81
2018-12-07T06:02:09.701Z,11.60
2018-12-07T06:04:38.318Z,11.85
2018-12-07T06:07:06.721Z,11.57
2018-12-07T06:09:35.084Z,11.80
2018-12-07T06:12:03.394Z,11.79
2018-12-07T06:14:31.741Z,11.87
2018-12-07T06:17:00.227Z,11.77
2018-12-07T06:19:28.571Z,11.76
2018-12-07T06:21:57.249Z,11.74
2018-12-07T06:24:25.728Z,11.78
2018-12-07T06:26:54.058Z,11.55
2018-12-07T06:29:22.590Z,11.82
2018-12-07T06:31:51.228Z,11.68
2018-12-07T06:34:19.622Z,11.92
2018-12-07T06:36:48.031Z,11.81
2018-12-07T06:39:16.871Z,11.77
2018-12-07T06:44:20.211Z,11.90
2018-12-07T06:46:48.694Z,11.70
2018-12-07T06:49:17.231Z,11.89
2018-12-07T06:51:45.871Z,12.03
2018-12-07T06:54:14.305Z,12.00
2018-12-07T06:56:42.724Z,12.02
2018-12-07T06:59:11.710Z,11.93
2018-12-07T07:01:40.195Z,12.09
2018-12-07T07:04:09.283Z,11.90
2018-12-07T07:06:37.584Z,11.93
2018-12-07T07:09:07.701Z,11.92
2018-12-07T07:11:36.037Z,11.97
2018-12-07T07:14:04.736Z,12.02
2018-12-07T07:16:33.208Z,11.81
2018-12-07T07:19:01.709Z,11.96
2018-12-07T07:21:30.153Z,11.88
2018-12-07T07:23:59.291Z,12.02
2018-12-07T07:26:27.844Z,11.98
2018-12-07T07:28:56.404Z,11.77
2018-12-07T07:31:24.748Z,11.88
2018-12-07T07:33:53.165Z,11.94
2018-12-07T07:36:21.477Z,11.80
2018-12-07T07:38:49.798Z,11.92
2018-12-07T07:41:18.207Z,11.90
2018-12-07T07:43:46.503Z,12.05
2018-12-07T07:46:15.127Z,11.99
2018-12-07T07:48:43.402Z,11.88
2018-12-07T07:51:11.777Z,11.87
2018-12-07T07:53:40.109Z,11.79
2018-12-07T07:56:15.200Z,11.89
2018-12-07T07:58:39.325Z,11.98
2018-12-07T08:01:07.796Z,12.06
2018-12-07T08:03:36.135Z,11.77
2018-12-07T08:06:04.645Z,12.06
2018-12-07T08:08:33.420Z,11.75
2018-12-07T08:11:02.098Z,11.60
2018-12-07T08:13:30.567Z,11.71
2018-12-07T08:15:58.958Z,11.82
2018-12-07T08:18:27.499Z,11.88
2018-12-07T08:21:01.333Z,11.62
2018-12-07T08:23:30.127Z,11.83
2018-12-07T08:25:58.684Z,11.80
2018-12-07T08:28:27.144Z,11.90
2018-12-07T08:30:55.462Z,11.80
2018-12-07T08:33:23.844Z,11.86
2018-12-07T08:35:52.877Z,11.83
2018-12-07T08:38:21.191Z,11.71
2018-12-07T08:40:49.733Z,11.88
2018-12-07T08:43:18.424Z,11.79
2018-12-07T08:45:46.717Z,11.77
2018-12-07T08:48:15.253Z,11.86
2018-12-07T08:50:44.459Z,12.02
2018-12-07T08:53:13.371Z,12.15
2018-12-07T08:55:41.937Z,11.85
2018-12-07T08:58:10.408Z,12.01
2018-12-07T09:00:38.887Z,11.87
2018-12-07T09:03:07.377Z,12.11
2018-12-07T09:05:35.818Z,11.94
2018-12-07T09:08:04.124Z,11.78
2018-12-07T09:10:32.447Z,12.02
2018-12-07T09:13:01.378Z,11.89
2018-12-07T09:15:29.702Z,12.00
2018-12-07T09:17:58.086Z,11.88
2018-12-07T09:20:26.710Z,11.99
2018-12-07T09:22:55.316Z,12.06
2018-12-07T09:25:23.651Z,11.69
2018-12-07T09:27:51.936Z,11.78
2018-12-07T09:30:20.325Z,11.82
2018-12-07T09:32:49.189Z,11.46
2018-12-07T09:35:18.605Z,11.81
2018-12-07T09:37:46.891Z,11.67
2018-12-07T09:40:16.210Z,11.66
2018-12-07T09:42:45.116Z,11.84
2018-12-07T09:45:13.551Z,11.76
2018-12-07T09:47:41.823Z,11.97
2018-12-07T09:50:10.127Z,11.86
2018-12-07T09:52:38.590Z,11.68
2018-12-07T09:55:07.285Z,11.92
2018-12-07T09:57:35.710Z,11.74
2018-12-07T10:00:05.853Z,12.03
2018-12-07T10:02:34.221Z,12.01
2018-12-07T10:05:02.533Z,12.01
2018-12-07T10:07:30.856Z,12.13
2018-12-07T10:09:59.170Z,12.03
2018-12-07T10:12:27.598Z,11.81
2018-12-07T10:14:56.079Z,11.89
2018-12-07T10:17:24.571Z,11.94
2018-12-07T10:19:52.854Z,11.86
2018-12-07T10:22:21.389Z,11.86
2018-12-07T10:24:49.828Z,11.96
2018-12-07T10:27:18.336Z,12.03
2018-12-07T10:29:46.677Z,11.90
2018-12-07T10:32:15.157Z,11.73
2018-12-07T10:34:43.623Z,12.07
2018-12-07T10:37:12.282Z,12.09
2018-12-07T10:39:40.690Z,12.06
2018-12-07T10:42:09.066Z,12.05
2018-12-07T10:44:37.426Z,12.14
2018-12-07T10:47:06.434Z,12.08
2018-12-07T10:49:34.809Z,11.85
2018-12-07T10:52:03.495Z,11.99
2018-12-07T10:54:31.908Z,11.89
2018-12-07T10:57:00.239Z,12.21
2018-12-07T10:59:28.581Z,11.88
2018-12-07T11:02:02.650Z,11.96
2018-12-07T11:04:36.857Z,12.01
2018-12-07T11:07:11.014Z,12.16
2018-12-07T11:09:44.057Z,11.98
2018-12-07T11:12:18.011Z,12.07
2018-12-07T11:17:54.883Z,12.18
2018-12-07T11:20:28.832Z,12.22
2018-12-07T11:23:02.753Z,12.22
2018-12-07T11:25:36.604Z,12.22
2018-12-07T11:28:10.297Z,12.19
2018-12-07T11:33:44.748Z,12.44
2018-12-07T11:36:13.315Z,12.45
2018-12-07T11:38:41.895Z,12.37
2018-12-07T11:41:10.539Z,12.33
2018-12-07T11:43:39.170Z,12.36
2018-12-07T11:46:07.561Z,12.32
2018-12-07T11:48:36.132Z,12.35
2018-12-07T11:51:05.353Z,12.51
2018-12-07T11:53:34.527Z,12.40
2018-12-07T11:56:02.878Z,12.38
2018-12-07T11:58:31.897Z,12.34
2018-12-07T12:01:00.301Z,12.29
2018-12-07T12:03:30.372Z,12.27
2018-12-07T12:05:58.741Z,12.49
2018-12-07T12:08:27.458Z,12.30
2018-12-07T12:10:55.894Z,12.58
2018-12-07T12:13:24.258Z,12.55
2018-12-07T12:15:52.627Z,12.49
2018-12-07T12:18:21.013Z,12.58
2018-12-07T12:20:49.411Z,12.38
2018-12-07T12:23:17.896Z,12.57
2018-12-07T12:25:46.362Z,12.59
2018-12-07T12:28:14.665Z,12.37
2018-12-07T12:30:42.976Z,12.43
2018-12-07T12:33:11.307Z,12.55
2018-12-07T12:35:39.627Z,12.44
2018-12-07T12:38:08.038Z,12.49
2018-12-07T12:40:36.932Z,12.54
2018-12-07T12:43:05.300Z,12.19
2018-12-07T12:45:33.604Z,12.52
2018-12-07T12:48:02.762Z,12.49
2018-12-07T12:50:36.694Z,12.58
2018-12-07T12:53:05.398Z,12.38
2018-12-07T12:55:34.091Z,12.50
2018-12-07T12:58:02.398Z,12.66
2018-12-07T13:00:31.312Z,12.59
2018-12-07T13:03:00.077Z,12.57
2018-12-07T13:05:29.290Z,12.54
2018-12-07T13:07:57.707Z,12.53
2018-12-07T13:10:26.358Z,12.55
2018-12-07T13:12:55.029Z,12.62
2018-12-07T13:15:23.352Z,12.63
2018-12-07T13:17:51.918Z,12.79
2018-12-07T13:20:20.468Z,12.74
2018-12-07T13:22:48.835Z,12.65
2018-12-07T13:25:17.107Z,12.62
2018-12-07T13:27:45.450Z,12.52
2018-12-07T13:30:13.746Z,12.70
2018-12-07T13:32:42.201Z,12.55
2018-12-07T13:35:11.173Z,12.71
2018-12-07T13:37:39.691Z,12.74
2018-12-07T13:40:08.354Z,12.67
2018-12-07T13:42:37.036Z,12.58
2018-12-07T13:45:07.428Z,12.67
2018-12-07T13:47:36.077Z,12.72
2018-12-07T13:50:11.226Z,12.77
2018-12-07T13:52:39.736Z,12.52
2018-12-07T13:55:08.314Z,12.78
2018-12-07T13:57:37.276Z,12.78
2018-12-07T14:00:08.380Z,12.70
2018-12-07T14:02:37.130Z,12.75
2018-12-07T14:05:06.014Z,12.80
2018-12-07T14:07:34.552Z,12.51
2018-12-07T14:10:03.275Z,12.77
2018-12-07T14:12:31.955Z,12.68
2018-12-07T14:15:00.395Z,12.64
2018-12-07T14:17:28.900Z,12.64
2018-12-07T14:19:57.366Z,12.80
2018-12-07T14:22:26.185Z,12.63
2018-12-07T14:24:54.600Z,12.72
2018-12-07T14:27:23.051Z,12.70
2018-12-07T14:29:51.580Z,12.66
2018-12-07T14:32:20.360Z,12.77
2018-12-07T14:34:49.649Z,12.59
2018-12-07T14:37:18.675Z,12.68
2018-12-07T14:39:47.179Z,12.80
2018-12-07T14:42:16.164Z,12.78
2018-12-07T14:44:44.657Z,12.62
2018-12-07T14:47:16.493Z,12.84
2018-12-07T14:49:44.867Z,12.63
2018-12-07T14:52:13.443Z,12.47
2018-12-07T14:54:42.395Z,12.48
2018-12-07T14:57:11.559Z,12.28
2018-12-07T14:59:40.265Z,12.18
2018-12-07T15:02:08.721Z,12.35
2018-12-07T15:04:37.219Z,12.34
2018-12-07T15:07:05.845Z,12.45
2018-12-07T15:09:34.670Z,12.33
2018-12-07T15:12:03.287Z,12.19
2018-12-07T15:14:31.881Z,12.09
2018-12-07T15:17:00.319Z,11.92
2018-12-07T15:19:28.968Z,11.82
2018-12-07T15:21:57.685Z,11.83
2018-12-07T15:24:26.309Z,11.85
2018-12-07T15:26:54.981Z,11.83
2018-12-07T15:29:23.479Z,11.85
2018-12-07T15:31:51.905Z,11.73
2018-12-07T15:34:20.559Z,11.78
2018-12-07T15:36:49.456Z,11.77
2018-12-07T15:39:18.222Z,11.85
2018-12-07T15:41:46.748Z,11.54
2018-12-07T15:44:15.244Z,12.29
2018-12-07T15:46:44.256Z,11.86
2018-12-07T15:49:12.801Z,12.12
2018-12-07T15:51:41.345Z,12.10
2018-12-07T15:54:10.085Z,12.16
2018-12-07T15:56:39.025Z,12.09
2018-12-07T15:59:07.494Z,12.36
2018-12-07T16:01:36.057Z,12.07
2018-12-07T16:04:04.600Z,12.30
2018-12-07T16:06:33.438Z,12.43
2018-12-07T16:09:02.237Z,12.42
2018-12-07T16:11:32.510Z,12.48
2018-12-07T16:14:01.022Z,12.49
2018-12-07T16:16:29.611Z,12.47
2018-12-07T16:18:58.108Z,12.55
2018-12-07T16:21:26.549Z,12.54
2018-12-07T16:23:55.061Z,12.57
2018-12-07T16:26:23.757Z,12.50
2018-12-07T16:28:52.211Z,12.51
2018-12-07T16:31:20.906Z,12.40
2018-12-07T16:33:49.854Z,12.40
2018-12-07T16:36:18.742Z,12.18
2018-12-07T16:38:47.323Z,12.19
2018-12-07T16:41:15.885Z,12.22
2018-12-07T16:43:44.604Z,12.06
2018-12-07T16:46:13.831Z,12.26
2018-12-07T16:48:42.326Z,12.04
2018-12-07T16:51:11.303Z,12.16
2018-12-07T16:53:39.829Z,11.98
2018-12-07T16:56:08.330Z,11.97
2018-12-07T16:58:41.160Z,11.95
2018-12-07T17:01:09.676Z,11.80
2018-12-07T17:03:38.449Z,11.78
2018-12-07T17:06:07.117Z,11.73
2018-12-07T17:08:35.536Z,11.80
2018-12-07T17:11:04.025Z,11.75
2018-12-07T17:13:32.480Z,11.58
2018-12-07T17:16:01.078Z,11.57
2018-12-07T17:18:29.592Z,11.55
2018-12-07T17:20:58.102Z,11.53
2018-12-07T17:23:27.465Z,11.57
2018-12-07T17:25:56.690Z,11.51
2018-12-07T17:28:25.320Z,11.42
2018-12-07T17:30:54.017Z,11.43
2018-12-07T17:33:22.496Z,11.44
2018-12-07T17:35:51.077Z,11.38
2018-12-07T17:38:19.855Z,11.38
2018-12-07T17:40:49.303Z,11.38
2018-12-07T17:43:17.887Z,11.30
2018-12-07T17:45:46.341Z,11.18
2018-12-07T17:48:14.739Z,11.13
2018-12-07T17:50:43.158Z,11.29
2018-12-07T17:53:11.560Z,11.08
2018-12-07T17:55:40.245Z,11.31
2018-12-07T17:58:08.622Z,11.06
2018-12-07T18:00:37.043Z,11.26
2018-12-07T18:03:05.479Z,11.37
2018-12-07T18:05:34.367Z,11.24
2018-12-07T18:08:03.303Z,11.18
2018-12-07T18:10:31.832Z,11.28
2018-12-07T18:13:00.335Z,11.20
2018-12-07T18:15:29.103Z,11.09
2018-12-07T18:17:57.791Z,11.19
2018-12-07T18:20:26.703Z,11.32
2018-12-07T18:22:55.366Z,11.15
2018-12-07T18:25:24.040Z,11.23
2018-12-07T18:27:52.721Z,10.91
2018-12-07T18:30:21.435Z,11.13
2018-12-07T18:32:49.919Z,11.08
2018-12-07T18:35:19.136Z,11.05
2018-12-07T18:37:47.674Z,11.08
2018-12-07T18:40:16.325Z,11.00
2018-12-07T18:42:45.055Z,11.08
2018-12-07T18:45:14.015Z,11.12
2018-12-07T18:47:43.350Z,11.08
2018-12-07T18:50:12.249Z,11.41
2018-12-07T18:52:40.896Z,11.12
2018-12-07T18:55:09.781Z,11.05
2018-12-07T18:57:38.181Z,10.93
2018-12-07T19:00:08.942Z,11.08
2018-12-07T19:02:37.516Z,10.75
2018-12-07T19:05:06.724Z,11.04
2018-12-07T19:07:35.460Z,11.06
2018-12-07T19:10:05.399Z,10.81
2018-12-07T19:12:33.998Z,10.72
2018-12-07T19:15:02.798Z,10.69
2018-12-07T19:17:31.324Z,10.29
2018-12-07T19:19:59.849Z,10.62
2018-12-07T19:22:28.292Z,10.31
2018-12-07T19:24:56.676Z,10.07
2018-12-07T19:27:25.107Z,9.80
2018-12-07T19:29:53.594Z,9.75
2018-12-07T19:32:22.262Z,9.12
2018-12-07T19:34:50.928Z,8.67
2018-12-07T19:37:19.965Z,8.83
2018-12-07T19:39:49.255Z,8.65
2018-12-07T19:42:17.795Z,8.81
2018-12-07T19:44:46.595Z,8.46
2018-12-07T19:47:15.015Z,8.61
2018-12-07T19:49:43.599Z,8.35
2018-12-07T19:52:12.215Z,8.66
2018-12-07T19:54:40.768Z,8.61
2018-12-07T19:57:09.660Z,9.05
2018-12-07T19:59:38.047Z,8.88
2018-12-07T20:02:06.476Z,9.06
2018-12-07T20:04:35.353Z,8.91
2018-12-07T20:07:04.240Z,8.75
2018-12-07T20:09:32.725Z,8.77
2018-12-07T20:12:01.533Z,8.75
2018-12-07T20:14:30.019Z,8.88
2018-12-07T20:16:58.559Z,8.74
2018-12-07T20:19:26.845Z,8.46
2018-12-07T20:21:55.241Z,8.27
2018-12-07T20:24:23.855Z,8.63
2018-12-07T20:26:52.511Z,8.73
2018-12-07T20:29:21.455Z,8.68
2018-12-07T20:31:50.109Z,8.54
2018-12-07T20:34:19.410Z,8.50
2018-12-07T20:36:48.549Z,8.24
2018-12-07T20:39:17.017Z,8.53
2018-12-07T20:41:45.566Z,8.49
2018-12-07T20:44:14.173Z,8.36
2018-12-07T20:46:43.430Z,8.56
2018-12-07T20:49:11.871Z,8.42
2018-12-07T20:51:40.375Z,8.71
2018-12-07T20:54:09.496Z,8.83
2018-12-07T20:56:38.398Z,8.59
2018-12-07T20:59:07.760Z,8.72
2018-12-07T21:01:36.468Z,8.73
2018-12-07T21:04:31.378Z,8.89
2018-12-07T21:07:36.649Z,8.73
2018-12-07T21:14:01.800Z,8.55
2018-12-07T21:19:47.799Z,8.51
2018-12-07T21:22:16.314Z,8.44
2018-12-07T21:24:44.751Z,8.41
2018-12-07T21:27:13.711Z,8.14
2018-12-07T21:29:42.316Z,8.25
2018-12-07T21:32:13.846Z,8.26
2018-12-07T21:34:52.823Z,8.28
2018-12-07T21:37:21.589Z,8.36
2018-12-07T21:39:50.368Z,8.18
2018-12-07T21:42:19.045Z,7.97
2018-12-07T21:44:47.441Z,8.26
2018-12-07T21:47:15.938Z,8.36
2018-12-07T21:49:44.675Z,8.59
2018-12-07T21:52:16.892Z,8.03
2018-12-07T21:54:45.948Z,8.40
2018-12-07T21:57:15.529Z,7.93
2018-12-07T21:59:44.481Z,8.12
2018-12-07T22:02:13.506Z,8.21
2018-12-07T22:04:41.989Z,7.95
2018-12-07T22:07:15.180Z,7.62
2018-12-07T22:09:43.816Z,7.78
2018-12-07T22:12:12.757Z,8.02
2018-12-07T22:14:41.643Z,7.86
2018-12-07T22:17:10.244Z,7.45
2018-12-07T22:19:38.789Z,7.86
2018-12-07T22:22:07.351Z,7.71
2018-12-07T22:24:36.691Z,7.70
2018-12-07T22:27:05.673Z,7.74
2018-12-07T22:29:34.309Z,7.48
2018-12-07T22:32:03.334Z,7.79
2018-12-07T22:34:32.040Z,7.73
2018-12-07T22:37:00.703Z,7.83
2018-12-07T22:39:29.122Z,8.09
2018-12-07T22:41:58.525Z,7.96
2018-12-07T22:44:27.856Z,8.02
2018-12-07T22:46:56.683Z,7.94
2018-12-07T22:49:25.122Z,7.89
2018-12-07T22:51:54.463Z,8.12
2018-12-07T22:54:22.813Z,8.04
2018-12-07T22:56:51.875Z,7.94
2018-12-07T22:59:20.259Z,8.11
2018-12-07T23:01:48.758Z,7.92
2018-12-07T23:04:17.441Z,7.96
2018-12-07T23:06:45.725Z,7.98
2018-12-07T23:09:14.036Z,7.68
2018-12-07T23:11:42.339Z,7.84
2018-12-07T23:14:10.982Z,7.68
2018-12-07T23:16:39.374Z,8.07
2018-12-07T23:19:07.729Z,8.00
2018-12-07T23:21:36.032Z,7.74
2018-12-07T23:24:04.334Z,7.65
2018-12-07T23:26:32.667Z,7.51
2018-12-07T23:29:00.942Z,7.71
2018-12-07T23:31:29.324Z,7.68
2018-12-07T23:33:58.409Z,7.34
2018-12-07T23:36:27.065Z,7.71
2018-12-07T23:38:55.568Z,7.55
2018-12-07T23:41:23.892Z,7.67
2018-12-07T23:43:52.297Z,7.82
2018-12-07T23:46:20.648Z,7.64
2018-12-07T23:48:48.958Z,7.64
2018-12-07T23:51:17.501Z,7.72
2018-12-07T23:53:46.059Z,7.74
2018-12-07T23:56:14.547Z,7.53
2018-12-07T23:58:42.985Z,7.81
